createdAt,value
2022-07-29T00:01:44.471Z,2.70
2022-07-29T00:04:14.751Z,1.80
2022-07-29T00:06:43.716Z,3.00
2022-07-29T00:09:12.255Z,2.25
2022-07-29T00:11:40.744Z,2.47
2022-07-29T00:14:09.574Z,2.13
2022-07-29T00:16:38.001Z,2.47
2022-07-29T00:19:07.916Z,1.80
2022-07-29T00:21:37.732Z,1.88
2022-07-29T00:24:06.315Z,3.00
2022-07-29T00:26:34.749Z,1.80
2022-07-29T00:29:32.498Z,2.97
2022-07-29T00:31:52.618Z,3.85
2022-07-29T00:34:38.594Z,5.07
2022-07-29T00:37:08.250Z,3.15
2022-07-29T00:39:36.527Z,4.60
2022-07-29T00:42:06.264Z,3.20
2022-07-29T00:44:39.196Z,2.20
2022-07-29T00:47:08.365Z,2.35
2022-07-29T00:49:37.222Z,2.92
2022-07-29T00:52:08.085Z,2.33
2022-07-29T00:54:39.825Z,3.40
2022-07-29T00:57:13.956Z,2.20
2022-07-29T00:59:42.459Z,2.30
2022-07-29T01:02:10.726Z,2.38
2022-07-29T01:04:39.587Z,2.08
2022-07-29T01:07:09.969Z,2.45
2022-07-29T01:09:45.943Z,2.50
2022-07-29T01:12:18.777Z,1.83
2022-07-29T01:14:47.771Z,1.90
2022-07-29T01:17:22.870Z,4.03
2022-07-29T01:19:58.092Z,2.05
2022-07-29T01:22:37.478Z,1.88
2022-07-29T01:25:44.793Z,1.38
2022-07-29T01:28:38.285Z,1.83
2022-07-29T01:31:09.668Z,2.17
2022-07-29T01:33:53.082Z,1.30
2022-07-29T01:36:25.820Z,1.85
2022-07-29T01:39:01.141Z,1.63
2022-07-29T01:41:35.210Z,2.45
2022-07-29T01:44:14.985Z,1.50
2022-07-29T01:46:53.213Z,1.70
2022-07-29T01:49:26.295Z,1.58
2022-07-29T01:52:00.847Z,2.15
2022-07-29T01:54:39.380Z,2.33
2022-07-29T01:57:10.095Z,1.35
2022-07-29T01:59:40.611Z,2.33
2022-07-29T02:02:10.509Z,1.88
2022-07-29T02:04:40.274Z,2.28
2022-07-29T02:07:12.754Z,1.15
2022-07-29T02:09:42.975Z,1.27
2022-07-29T02:12:13.413Z,1.17
2022-07-29T02:14:46.930Z,1.88
2022-07-29T02:17:18.864Z,2.22
2022-07-29T02:19:48.364Z,1.17
2022-07-29T02:22:18.839Z,1.17
2022-07-29T02:24:48.434Z,1.33
2022-07-29T02:27:17.894Z,1.55
2022-07-29T02:29:48.656Z,1.77
2022-07-29T02:32:19.402Z,2.03
2022-07-29T02:34:49.654Z,1.40
2022-07-29T02:37:18.978Z,1.60
2022-07-29T02:39:49.274Z,1.63
2022-07-29T02:42:19.694Z,1.77
2022-07-29T02:44:49.477Z,1.30
2022-07-29T02:47:22.807Z,1.27
2022-07-29T02:49:59.193Z,2.63
2022-07-29T02:52:32.254Z,1.65
2022-07-29T02:55:04.317Z,2.50
2022-07-29T02:57:55.157Z,1.40
2022-07-29T03:00:27.765Z,1.77
2022-07-29T03:02:58.722Z,1.65
2022-07-29T03:05:27.847Z,1.95
2022-07-29T03:08:00.829Z,1.50
2022-07-29T03:10:29.687Z,1.35
2022-07-29T03:12:59.043Z,2.60
2022-07-29T03:15:29.713Z,2.13
2022-07-29T03:17:58.701Z,3.05
2022-07-29T03:20:27.667Z,1.88
2022-07-29T03:22:56.056Z,2.63
2022-07-29T03:25:24.377Z,2.25
2022-07-29T03:27:52.726Z,2.38
2022-07-29T03:30:22.555Z,2.78
2022-07-29T03:32:53.075Z,1.85
2022-07-29T03:35:21.924Z,1.35
2022-07-29T03:37:50.625Z,1.42
2022-07-29T03:40:22.149Z,2.47
2022-07-29T03:42:51.970Z,1.98
2022-07-29T03:45:21.754Z,1.95
2022-07-29T03:48:00.363Z,1.92
2022-07-29T03:50:30.785Z,1.08
2022-07-29T03:52:59.568Z,1.35
2022-07-29T03:55:30.784Z,1.38
2022-07-29T03:58:00.004Z,1.95
2022-07-29T04:00:29.639Z,2.10
2022-07-29T04:02:59.691Z,1.83
2022-07-29T04:05:28.035Z,1.58
2022-07-29T04:07:56.452Z,2.28
2022-07-29T04:10:30.206Z,1.67
2022-07-29T04:13:01.135Z,4.05
2022-07-29T04:15:31.467Z,1.90
2022-07-29T04:18:01.522Z,2.92
2022-07-29T04:20:29.836Z,1.63
2022-07-29T04:22:58.137Z,1.63
2022-07-29T04:25:26.436Z,2.47
2022-07-29T04:28:03.941Z,1.60
2022-07-29T04:30:33.764Z,3.00
2022-07-29T04:33:04.174Z,2.63
2022-07-29T04:35:38.243Z,2.00
2022-07-29T04:38:15.502Z,2.05
2022-07-29T04:40:45.772Z,2.85
2022-07-29T04:43:22.383Z,2.55
2022-07-29T04:45:51.892Z,1.85
2022-07-29T04:48:26.716Z,3.13
2022-07-29T04:50:56.984Z,1.35
2022-07-29T04:53:25.576Z,2.80
2022-07-29T04:55:56.496Z,1.75
2022-07-29T04:58:25.275Z,1.92
2022-07-29T05:00:53.703Z,2.10
2022-07-29T05:03:23.375Z,2.22
2022-07-29T05:05:51.648Z,2.88
2022-07-29T05:08:19.904Z,1.42
2022-07-29T05:10:48.264Z,1.30
2022-07-29T05:13:17.146Z,2.78
2022-07-29T05:15:45.693Z,2.00
2022-07-29T05:18:14.042Z,2.80
2022-07-29T05:20:44.361Z,3.70
2022-07-29T05:23:13.810Z,5.25
2022-07-29T05:25:44.189Z,1.85
2022-07-29T05:28:13.148Z,2.58
2022-07-29T05:30:41.479Z,3.67
2022-07-29T05:33:34.737Z,2.25
2022-07-29T05:36:00.955Z,5.00
2022-07-29T05:38:29.518Z,2.90
2022-07-29T05:40:59.995Z,3.72
2022-07-29T05:43:28.689Z,4.45
2022-07-29T05:45:57.190Z,2.00
2022-07-29T05:48:25.684Z,2.05
2022-07-29T05:50:54.086Z,3.03
2022-07-29T05:53:23.922Z,3.20
2022-07-29T05:55:52.982Z,2.00
2022-07-29T05:58:21.628Z,3.35
2022-07-29T06:00:50.033Z,3.28
2022-07-29T06:03:18.350Z,2.53
2022-07-29T06:05:46.647Z,2.95
2022-07-29T06:08:15.015Z,2.78
2022-07-29T06:10:45.777Z,2.25
2022-07-29T06:13:16.856Z,3.60
2022-07-29T06:15:46.471Z,2.45
2022-07-29T06:18:14.967Z,2.63
2022-07-29T06:20:43.261Z,3.63
2022-07-29T06:23:11.565Z,3.22
2022-07-29T06:25:41.497Z,3.00
2022-07-29T06:28:11.181Z,2.63
2022-07-29T06:30:40.178Z,3.53
2022-07-29T06:33:08.636Z,3.72
2022-07-29T06:35:41.988Z,2.58
2022-07-29T06:38:31.360Z,3.40
2022-07-29T06:41:04.910Z,2.33
2022-07-29T06:43:52.509Z,2.10
2022-07-29T06:46:23.903Z,2.40
2022-07-29T06:48:53.307Z,2.50
2022-07-29T06:51:23.915Z,3.00
2022-07-29T06:54:00.023Z,5.50
2022-07-29T06:56:32.392Z,4.40
2022-07-29T06:59:09.131Z,3.28
2022-07-29T07:01:38.057Z,2.70
2022-07-29T07:04:06.681Z,3.80
2022-07-29T07:06:34.943Z,2.58
2022-07-29T07:09:03.677Z,3.80
2022-07-29T07:11:32.082Z,3.25
2022-07-29T07:14:03.413Z,4.43
2022-07-29T07:16:33.719Z,3.75
2022-07-29T07:19:02.285Z,2.63
2022-07-29T07:21:31.211Z,3.08
2022-07-29T07:24:00.263Z,3.15
2022-07-29T07:26:29.244Z,4.55
2022-07-29T07:28:57.530Z,5.40
2022-07-29T07:31:26.079Z,2.33
2022-07-29T07:33:55.768Z,2.83
2022-07-29T07:36:24.620Z,3.95
2022-07-29T07:38:53.127Z,2.88
2022-07-29T07:41:21.605Z,2.85
2022-07-29T07:43:49.952Z,3.95
2022-07-29T07:46:18.441Z,2.70
2022-07-29T07:48:46.768Z,3.00
2022-07-29T07:51:16.510Z,2.72
2022-07-29T07:53:45.670Z,2.35
2022-07-29T07:56:14.049Z,2.40
2022-07-29T07:58:42.358Z,2.35
2022-07-29T08:01:11.394Z,3.00
2022-07-29T08:03:40.319Z,2.70
2022-07-29T08:06:08.935Z,3.55
2022-07-29T08:08:38.587Z,1.88
2022-07-29T08:11:09.848Z,3.92
2022-07-29T08:13:39.435Z,2.35
2022-07-29T08:16:16.014Z,2.40
2022-07-29T08:18:46.010Z,6.00
2022-07-29T08:21:15.456Z,4.03
2022-07-29T08:23:59.779Z,3.03
2022-07-29T08:26:30.220Z,2.15
2022-07-29T08:28:58.527Z,2.92
2022-07-29T08:31:26.901Z,2.55
2022-07-29T08:33:57.092Z,2.88
2022-07-29T08:36:25.912Z,2.50
2022-07-29T08:38:55.616Z,2.95
2022-07-29T08:41:24.079Z,3.03
2022-07-29T08:43:53.310Z,4.45
2022-07-29T08:46:22.917Z,4.15
2022-07-29T08:48:51.766Z,2.15
2022-07-29T08:51:22.224Z,3.13
2022-07-29T08:53:52.121Z,2.40
2022-07-29T08:56:22.553Z,3.97
2022-07-29T08:58:52.589Z,2.70
2022-07-29T09:01:34.967Z,2.63
2022-07-29T09:04:06.689Z,2.10
2022-07-29T09:06:38.902Z,3.28
2022-07-29T09:09:09.871Z,3.30
2022-07-29T09:11:39.663Z,3.13
2022-07-29T09:14:08.087Z,3.30
2022-07-29T09:16:53.105Z,5.18
2022-07-29T09:19:23.706Z,2.95
2022-07-29T09:22:03.193Z,3.55
2022-07-29T09:24:46.214Z,5.32
2022-07-29T09:27:23.471Z,4.25
2022-07-29T09:29:59.783Z,5.15
2022-07-29T09:32:29.075Z,3.55
2022-07-29T09:35:21.840Z,3.17
2022-07-29T09:37:50.455Z,5.00
2022-07-29T09:40:20.974Z,4.63
2022-07-29T09:42:51.760Z,3.90
2022-07-29T09:45:30.870Z,5.18
2022-07-29T09:48:01.438Z,3.50
2022-07-29T09:50:40.943Z,3.83
2022-07-29T09:53:11.091Z,6.50
2022-07-29T09:55:50.768Z,5.28
2022-07-29T09:58:23.534Z,5.53
2022-07-29T10:03:20.742Z,4.63
2022-07-29T10:06:06.774Z,6.93
2022-07-29T10:08:35.314Z,5.43
2022-07-29T10:11:12.949Z,4.72
2022-07-29T10:13:43.400Z,4.97
2022-07-29T10:16:13.906Z,4.97
2022-07-29T10:18:44.497Z,4.47
2022-07-29T10:21:34.860Z,5.60
2022-07-29T10:24:03.774Z,5.28
2022-07-29T10:26:32.393Z,4.40
2022-07-29T10:29:02.956Z,4.43
2022-07-29T10:31:40.809Z,6.20
2022-07-29T10:34:19.302Z,3.72
2022-07-29T10:36:58.964Z,3.72
2022-07-29T10:39:44.647Z,3.88
2022-07-29T10:42:29.734Z,4.55
2022-07-29T10:45:05.782Z,3.35
2022-07-29T10:50:05.785Z,3.80
2022-07-29T10:52:57.985Z,5.35
2022-07-29T10:55:43.146Z,4.78
2022-07-29T10:58:17.895Z,4.03
2022-07-29T11:00:49.483Z,5.22
2022-07-29T11:03:50.367Z,3.95
2022-07-29T11:06:26.672Z,3.67
2022-07-29T11:09:20.379Z,4.20
2022-07-29T11:11:53.930Z,5.35
2022-07-29T11:15:00.238Z,4.63
2022-07-29T11:17:37.380Z,4.47
2022-07-29T11:20:39.084Z,4.15
2022-07-29T11:23:24.491Z,3.92
2022-07-29T11:26:21.132Z,4.22
2022-07-29T11:28:56.047Z,5.18
2022-07-29T11:31:36.739Z,5.10
2022-07-29T11:37:27.728Z,4.80
2022-07-29T11:42:48.441Z,5.43
2022-07-29T11:45:42.732Z,3.70
2022-07-29T11:48:28.742Z,3.47
2022-07-29T11:51:03.086Z,4.88
2022-07-29T11:53:32.994Z,6.32
2022-07-29T11:56:02.799Z,6.53
2022-07-29T11:58:32.524Z,5.32
2022-07-29T12:01:04.286Z,4.05
2022-07-29T12:03:50.897Z,4.63
2022-07-29T12:07:01.565Z,4.18
2022-07-29T12:09:14.435Z,4.05
2022-07-29T12:11:55.488Z,3.55
2022-07-29T12:14:28.548Z,3.92
2022-07-29T12:16:57.212Z,5.30
2022-07-29T12:19:27.010Z,4.95
2022-07-29T12:21:59.470Z,3.85
2022-07-29T12:24:28.315Z,4.15
2022-07-29T12:26:57.764Z,3.72
2022-07-29T12:29:35.030Z,4.75
2022-07-29T12:32:14.979Z,4.43
2022-07-29T12:34:48.052Z,4.97
2022-07-29T12:37:18.163Z,4.63
2022-07-29T12:39:46.495Z,4.78
2022-07-29T12:42:18.401Z,3.85
2022-07-29T12:44:48.927Z,3.45
2022-07-29T12:47:17.412Z,4.85
2022-07-29T12:49:45.767Z,3.55
2022-07-29T12:52:34.958Z,4.18
2022-07-29T12:55:04.302Z,4.28
2022-07-29T12:57:33.767Z,4.13
2022-07-29T13:00:08.753Z,4.85
2022-07-29T13:02:37.565Z,5.43
2022-07-29T13:05:09.173Z,4.07
2022-07-29T13:07:55.933Z,4.53
2022-07-29T13:10:26.931Z,6.40
2022-07-29T13:13:05.936Z,4.55
2022-07-29T13:15:34.681Z,5.38
2022-07-29T13:18:02.958Z,4.90
2022-07-29T13:20:32.054Z,6.22
2022-07-29T13:23:02.725Z,5.85
2022-07-29T13:25:34.018Z,4.00
2022-07-29T13:28:02.509Z,5.45
2022-07-29T13:30:30.817Z,5.57
2022-07-29T13:32:59.175Z,6.13
2022-07-29T13:35:30.712Z,5.47
2022-07-29T13:37:59.060Z,4.97
2022-07-29T13:40:30.125Z,6.80
2022-07-29T13:42:58.459Z,3.92
2022-07-29T13:45:29.130Z,4.93
2022-07-29T13:47:57.710Z,7.40
2022-07-29T13:50:26.094Z,3.67
2022-07-29T13:52:54.386Z,5.45
2022-07-29T13:55:22.980Z,4.63
2022-07-29T13:57:52.715Z,3.67
2022-07-29T14:00:21.003Z,4.53
2022-07-29T14:02:49.289Z,3.50
2022-07-29T14:05:17.711Z,4.60
2022-07-29T14:07:46.000Z,4.78
2022-07-29T14:10:17.254Z,3.20
2022-07-29T14:12:48.269Z,3.53
2022-07-29T14:15:18.352Z,4.00
2022-07-29T14:17:46.689Z,4.60
2022-07-29T14:20:16.511Z,5.05
2022-07-29T14:22:45.683Z,6.50
2022-07-29T14:25:14.994Z,3.72
2022-07-29T14:27:44.176Z,4.93
2022-07-29T14:30:13.267Z,3.45
2022-07-29T14:32:43.103Z,3.30
2022-07-29T14:35:11.555Z,4.22
2022-07-29T14:37:41.165Z,3.63
2022-07-29T14:40:10.897Z,4.38
2022-07-29T14:42:39.924Z,3.10
2022-07-29T14:45:10.025Z,3.85
2022-07-29T14:47:38.833Z,4.60
2022-07-29T14:50:11.916Z,4.57
2022-07-29T14:52:40.393Z,4.70
2022-07-29T14:55:16.550Z,3.85
2022-07-29T14:57:49.477Z,3.95
2022-07-29T15:00:19.108Z,3.40
2022-07-29T15:03:01.517Z,3.42
2022-07-29T15:05:32.647Z,4.22
2022-07-29T15:08:01.310Z,3.53
2022-07-29T15:10:30.063Z,4.13
2022-07-29T15:12:58.630Z,4.05
2022-07-29T15:15:27.178Z,3.75
2022-07-29T15:17:55.507Z,4.60
2022-07-29T15:20:26.296Z,4.10
2022-07-29T15:22:56.939Z,3.27
2022-07-29T15:25:25.339Z,7.03
2022-07-29T15:27:56.661Z,3.25
2022-07-29T15:30:33.673Z,3.25
2022-07-29T15:33:03.872Z,3.42
2022-07-29T15:35:32.474Z,5.32
2022-07-29T15:38:02.442Z,4.13
2022-07-29T15:40:30.852Z,3.08
2022-07-29T15:43:01.766Z,4.07
2022-07-29T15:45:31.967Z,4.05
2022-07-29T15:48:01.463Z,4.50
2022-07-29T15:50:29.837Z,3.22
2022-07-29T15:52:58.171Z,4.20
2022-07-29T15:55:28.033Z,3.30
2022-07-29T15:58:00.478Z,3.83
2022-07-29T16:00:29.324Z,6.43
2022-07-29T16:02:57.632Z,5.15
2022-07-29T16:05:26.267Z,4.60
2022-07-29T16:07:54.669Z,4.07
2022-07-29T16:10:22.998Z,3.90
2022-07-29T16:12:52.941Z,5.20
2022-07-29T16:15:21.639Z,3.78
2022-07-29T16:17:50.454Z,5.20
2022-07-29T16:20:18.992Z,4.03
2022-07-29T16:22:47.242Z,3.53
2022-07-29T16:25:15.642Z,3.53
2022-07-29T16:27:44.053Z,7.38
2022-07-29T16:30:14.417Z,4.25
2022-07-29T16:32:43.019Z,4.43
2022-07-29T16:35:11.879Z,4.72
2022-07-29T16:37:40.166Z,3.85
2022-07-29T16:40:11.512Z,5.68
2022-07-29T16:42:48.035Z,6.15
2022-07-29T16:45:21.478Z,3.92
2022-07-29T16:47:49.965Z,6.22
2022-07-29T16:50:19.520Z,4.13
2022-07-29T16:52:48.072Z,5.40
2022-07-29T16:55:16.425Z,4.72
2022-07-29T16:57:45.449Z,3.92
2022-07-29T17:00:15.078Z,5.68
2022-07-29T17:02:44.736Z,4.70
2022-07-29T17:05:13.748Z,4.93
2022-07-29T17:07:42.450Z,7.25
2022-07-29T17:10:12.208Z,293.65
2022-07-29T17:12:41.791Z,239.57
2022-07-29T17:15:12.394Z,231.07
2022-07-29T17:17:55.034Z,276.13
2022-07-29T17:20:26.774Z,286.42
2022-07-29T17:22:55.323Z,154.23
2022-07-29T17:25:24.785Z,117.30
2022-07-29T17:27:57.505Z,105.07
2022-07-29T17:30:29.050Z,80.63
2022-07-29T17:32:57.378Z,91.85
2022-07-29T17:35:44.445Z,74.95
2022-07-29T17:38:12.823Z,196.40
2022-07-29T17:40:41.100Z,113.82
2022-07-29T17:43:10.340Z,130.35
2022-07-29T17:45:50.083Z,129.77
2022-07-29T17:48:19.625Z,270.17
2022-07-29T17:50:49.853Z,83.10
2022-07-29T17:53:18.701Z,32.03
2022-07-29T17:55:48.789Z,21.48
2022-07-29T17:58:17.538Z,14.55
2022-07-29T18:00:46.160Z,13.30
2022-07-29T18:03:14.916Z,15.82
2022-07-29T18:05:43.442Z,5.72
2022-07-29T18:08:14.409Z,7.72
2022-07-29T18:10:42.771Z,7.10
2022-07-29T18:13:12.638Z,6.80
2022-07-29T18:15:41.043Z,5.90
2022-07-29T18:18:10.154Z,6.18
2022-07-29T18:20:38.666Z,4.72
2022-07-29T18:23:07.038Z,4.22
2022-07-29T18:25:36.690Z,5.53
2022-07-29T18:28:06.495Z,4.57
2022-07-29T18:30:36.835Z,4.20
2022-07-29T18:33:20.735Z,5.90
2022-07-29T18:35:51.173Z,4.53
2022-07-29T18:38:19.753Z,6.53
2022-07-29T18:40:49.565Z,3.15
2022-07-29T18:43:18.149Z,2.55
2022-07-29T18:45:47.990Z,3.70
2022-07-29T18:48:16.900Z,3.33
2022-07-29T18:50:45.473Z,4.55
2022-07-29T18:53:13.751Z,2.65
2022-07-29T18:55:42.237Z,5.22
2022-07-29T18:58:11.904Z,3.38
2022-07-29T19:00:40.191Z,4.68
2022-07-29T19:03:10.168Z,2.72
2022-07-29T19:05:38.844Z,2.78
2022-07-29T19:08:07.543Z,5.15
2022-07-29T19:10:36.167Z,3.38
2022-07-29T19:13:05.455Z,123.97
2022-07-29T19:15:35.126Z,154.80
2022-07-29T19:18:04.505Z,270.20
2022-07-29T19:20:33.060Z,379.88
2022-07-29T19:23:01.627Z,191.23
2022-07-29T19:25:30.233Z,126.03
2022-07-29T19:27:58.779Z,164.43
2022-07-29T19:30:27.634Z,71.95
2022-07-29T19:32:57.411Z,77.55
2022-07-29T19:35:28.169Z,391.92
2022-07-29T19:37:57.576Z,124.75
2022-07-29T19:40:27.113Z,63.42
2022-07-29T19:42:56.922Z,216.38
2022-07-29T19:45:25.882Z,112.38
2022-07-29T19:47:59.113Z,81.95
2022-07-29T19:50:31.338Z,62.63
2022-07-29T19:53:00.119Z,51.67
2022-07-29T19:55:28.794Z,45.85
2022-07-29T19:57:58.941Z,34.25
2022-07-29T20:00:28.789Z,25.13
2022-07-29T20:02:59.049Z,20.70
2022-07-29T20:05:28.396Z,17.45
2022-07-29T20:07:58.655Z,12.40
2022-07-29T20:10:27.147Z,10.95
2022-07-29T20:12:55.814Z,10.15
2022-07-29T20:15:24.214Z,7.05
2022-07-29T20:17:56.733Z,6.88
2022-07-29T20:20:26.296Z,7.20
2022-07-29T20:22:54.986Z,4.53
2022-07-29T20:25:25.091Z,5.07
2022-07-29T20:27:54.343Z,4.50
2022-07-29T20:30:23.339Z,4.28
2022-07-29T20:32:51.786Z,4.40
2022-07-29T20:35:22.404Z,3.75
2022-07-29T20:37:55.770Z,3.08
2022-07-29T20:40:27.119Z,3.15
2022-07-29T20:45:25.603Z,2.00
2022-07-29T20:47:54.407Z,2.85
2022-07-29T20:50:25.118Z,3.55
2022-07-29T20:52:53.897Z,3.00
2022-07-29T20:55:22.683Z,3.97
2022-07-29T20:57:52.271Z,2.70
2022-07-29T21:00:20.862Z,2.63
2022-07-29T21:02:49.126Z,3.25
2022-07-29T21:05:17.587Z,4.35
2022-07-29T21:07:46.122Z,3.65
2022-07-29T21:10:15.056Z,3.45
2022-07-29T21:12:43.715Z,3.10
2022-07-29T21:15:15.935Z,4.13
2022-07-29T21:17:47.935Z,4.03
2022-07-29T21:20:18.515Z,3.10
2022-07-29T21:22:47.162Z,3.03
2022-07-29T21:25:15.826Z,3.85
2022-07-29T21:28:01.726Z,4.45
2022-07-29T21:30:31.353Z,2.85
2022-07-29T21:32:59.680Z,4.85
2022-07-29T21:36:02.106Z,3.67
2022-07-29T21:38:18.308Z,3.72
2022-07-29T21:40:47.472Z,4.20
2022-07-29T21:43:16.102Z,2.92
2022-07-29T21:45:47.712Z,4.60
2022-07-29T21:50:44.291Z,3.75
2022-07-29T21:53:13.881Z,4.15
2022-07-29T21:58:15.305Z,5.30
2022-07-29T22:00:44.020Z,4.28
2022-07-29T22:03:14.150Z,4.75
2022-07-29T22:05:42.838Z,3.50
2022-07-29T22:08:11.541Z,3.75
2022-07-29T22:10:40.289Z,4.40
2022-07-29T22:13:09.295Z,4.22
2022-07-29T22:15:37.971Z,3.53
2022-07-29T22:18:07.782Z,4.47
2022-07-29T22:20:37.812Z,3.75
2022-07-29T22:23:10.292Z,3.25
2022-07-29T22:25:38.949Z,4.35
2022-07-29T22:28:07.510Z,4.13
2022-07-29T22:30:36.181Z,5.30
2022-07-29T22:33:04.863Z,3.97
2022-07-29T22:35:33.500Z,5.75
2022-07-29T22:38:03.485Z,3.75
2022-07-29T22:40:32.809Z,4.15
2022-07-29T22:43:02.816Z,3.63
2022-07-29T22:45:31.401Z,4.75
2022-07-29T22:47:59.962Z,2.67
2022-07-29T22:50:28.565Z,3.20
2022-07-29T22:52:57.124Z,3.08
2022-07-29T22:55:27.164Z,5.43
2022-07-29T22:57:55.789Z,2.83
2022-07-29T23:00:24.357Z,3.08
2022-07-29T23:02:52.946Z,2.50
2022-07-29T23:05:21.669Z,2.85
2022-07-29T23:07:50.269Z,3.83
2022-07-29T23:10:18.927Z,2.58
2022-07-29T23:12:48.876Z,3.60
2022-07-29T23:15:17.641Z,2.85
2022-07-29T23:17:46.868Z,3.92
2022-07-29T23:20:15.479Z,3.58
2022-07-29T23:22:44.120Z,4.05
2022-07-29T23:25:12.745Z,4.40
2022-07-29T23:27:41.419Z,5.00
2022-07-29T23:30:11.874Z,3.47
2022-07-29T23:32:40.495Z,3.92
2022-07-29T23:35:09.870Z,5.93
2022-07-29T23:37:39.834Z,6.20
2022-07-29T23:40:13.952Z,6.53
2022-07-29T23:42:43.296Z,4.93
2022-07-29T23:45:13.967Z,4.03
2022-07-29T23:47:42.650Z,3.30
2022-07-29T23:50:13.204Z,3.67
2022-07-29T23:52:42.128Z,3.25
2022-07-29T23:55:37.253Z,3.00
2022-07-29T23:58:00.235Z,4.13
